Time;durP1;ratioP1;P1;durP2;ratioP2;P2;SDS_P1;SDS_P2;PMS_P1;PMS_P2;Temp;Humidity;BMP_temperature;BMP_pressure;BME280_temperature;BME280_humidity;BME280_pressure;Samples;Min_cycle;Max_cycle;Signal;HPM_P1;HPM_P2
2023/08/14 00:04:38;;;;;;;4.90;2.00;;;;;;;22.70;78.56;99107.81;7200536;40;20375;31
2023/08/14 00:15:00;;;;;;;4.72;1.90;;;;;;;22.87;77.74;99114.19;7314707;39;21247;31
2023/08/14 00:25:36;;;;;;;2.53;2.10;;;;;;;22.87;77.31;99116.94;7268152;39;21361;31
2023/08/14 00:36:12;;;;;;;4.40;2.20;;;;;;;22.83;77.74;99098.44;7285481;39;21059;31
2023/08/14 00:41:48;;;;;;;4.05;2.30;;;;;;;22.77;79.63;99102.19;7254916;40;20403;31
2023/08/14 00:47:23;;;;;;;4.57;1.87;;;;;;;22.69;78.12;99097.03;7259638;40;20335;31
2023/08/14 00:52:55;;;;;;;3.47;2.20;;;;;;;22.69;78.88;99105.28;7016522;40;20238;31
2023/08/14 00:58:31;;;;;;;3.90;1.90;;;;;;;22.72;79.24;99110.34;7316641;39;21030;31
2023/08/14 01:04:03;;;;;;;4.40;2.05;;;;;;;22.71;78.62;99093.03;7258325;39;20727;31
2023/08/14 01:14:40;;;;;;;6.85;2.55;;;;;;;22.77;79.13;99103.00;7184703;40;21146;31
2023/08/14 01:25:38;;;;;;;3.75;2.12;;;;;;;22.79;78.41;99106.34;7277221;39;21307;31
2023/08/14 01:30:58;;;;;;;4.93;1.97;;;;;;;22.66;78.86;99103.88;7277006;39;21297;31
2023/08/14 01:36:30;;;;;;;9.15;2.35;;;;;;;22.65;78.87;99102.22;7225483;40;20261;31
2023/08/14 01:42:07;;;;;;;4.30;2.60;;;;;;;22.67;78.92;99101.97;7235087;40;20340;31
2023/08/14 01:47:41;;;;;;;4.12;2.40;;;;;;;22.70;79.37;99115.25;7165180;40;20275;31
2023/08/14 01:53:17;;;;;;;4.10;2.40;;;;;;;22.62;78.91;99110.13;7145607;40;20363;31
2023/08/14 01:58:53;;;;;;;3.80;2.30;;;;;;;22.49;79.17;99105.75;7162382;40;20257;31
2023/08/14 02:04:14;;;;;;;3.40;2.08;;;;;;;22.52;79.69;99099.75;7198440;40;20262;31
2023/08/14 02:14:50;;;;;;;4.68;2.60;;;;;;;22.10;82.13;99096.47;7139833;40;20993;31
2023/08/14 02:20:25;;;;;;;4.40;2.37;;;;;;;22.06;81.40;99076.09;7179924;40;20278;31
2023/08/14 02:26:00;;;;;;;3.22;2.30;;;;;;;22.03;81.62;99082.03;7198831;40;21277;31
2023/08/14 02:36:37;;;;;;;5.18;2.67;;;;;;;21.94;82.20;99062.38;7195198;40;21110;31
2023/08/14 02:47:14;;;;;;;4.55;2.70;;;;;;;22.12;81.61;99055.87;7174765;40;21151;31
2023/08/14 02:52:50;;;;;;;2.97;2.42;;;;;;;22.00;81.64;99041.34;7134895;40;20263;31
2023/08/14 02:58:22;;;;;;;5.00;2.87;;;;;;;21.98;81.28;99038.84;7192475;40;20394;31
2023/08/14 03:08:59;;;;;;;4.40;2.60;;;;;;;21.81;82.40;99032.44;7268515;39;20360;31
2023/08/14 03:19:23;;;;;;;3.35;2.83;;;;;;;21.60;83.25;99022.09;7271421;40;20306;31
2023/08/14 03:29:57;;;;;;;3.28;2.40;;;;;;;21.69;82.95;99039.03;7233078;40;21192;31
2023/08/14 03:40:33;;;;;;;3.50;2.70;;;;;;;21.62;83.72;99035.59;7234939;40;21185;31
2023/08/14 03:51:08;;;;;;;3.65;2.55;;;;;;;21.59;84.00;99047.87;7303261;39;21564;31
2023/08/14 03:56:25;;;;;;;3.85;2.85;;;;;;;21.76;83.14;99062.53;7294329;39;20271;31
2023/08/14 04:01:45;;;;;;;6.37;2.58;;;;;;;21.72;82.71;99068.75;7295211;39;20361;31
2023/08/14 04:07:22;;;;;;;6.77;2.53;;;;;;;21.76;83.08;99084.50;7294582;39;20256;31
2023/08/14 04:12:42;;;;;;;5.78;2.40;;;;;;;21.69;82.31;99078.28;7302206;39;20356;31
2023/08/14 04:18:17;;;;;;;3.58;2.58;;;;;;;21.61;83.00;99073.16;7264283;40;20372;31
2023/08/14 04:23:50;;;;;;;4.63;3.23;;;;;;;21.56;82.76;99057.44;7265767;40;20362;31
2023/08/14 04:29:22;;;;;;;3.93;2.73;;;;;;;21.62;82.94;99063.03;7216832;40;20378;31
2023/08/14 04:34:39;;;;;;;5.95;2.65;;;;;;;21.63;82.78;99059.22;7267837;39;20269;31
2023/08/14 04:40:12;;;;;;;2.97;2.60;;;;;;;21.65;82.64;99049.66;7291223;39;20467;31
2023/08/14 04:45:46;;;;;;;3.60;2.73;;;;;;;21.62;83.08;99049.31;7312004;39;20263;31
2023/08/14 04:51:01;;;;;;;3.60;2.62;;;;;;;21.57;83.13;99037.16;7308295;39;20462;31
2023/08/14 04:56:35;;;;;;;4.90;2.87;;;;;;;21.43;83.69;99048.63;7240366;40;20250;31
2023/08/14 05:01:52;;;;;;;4.78;3.95;;;;;;;21.43;83.94;99060.44;7210541;40;20259;31
2023/08/14 05:07:24;;;;;;;4.43;2.80;;;;;;;21.51;84.19;99048.25;7217728;40;20265;31
2023/08/14 05:12:57;;;;;;;4.30;2.90;;;;;;;21.54;84.85;99036.81;7197681;40;20386;31
2023/08/14 05:18:29;;;;;;;5.00;3.20;;;;;;;21.61;84.86;99040.25;7172645;40;20254;31
2023/08/14 05:24:01;;;;;;;5.18;3.33;;;;;;;21.74;85.03;99037.22;7173606;40;20266;31
2023/08/14 05:29:32;;;;;;;3.42;3.00;;;;;;;21.87;85.06;99033.37;7157643;40;20277;31
2023/08/14 05:34:49;;;;;;;4.15;2.90;;;;;;;22.04;84.86;99039.78;7182801;40;20251;31
2023/08/14 05:40:23;;;;;;;5.23;3.33;;;;;;;22.15;84.55;99029.84;7139527;40;20263;31
2023/08/14 05:45:59;;;;;;;3.72;3.10;;;;;;;22.21;84.31;99042.56;7132778;40;20247;31
2023/08/14 05:51:16;;;;;;;5.30;3.00;;;;;;;22.19;85.04;99039.25;7200022;40;20404;31
2023/08/14 05:56:36;;;;;;;7.87;3.45;;;;;;;22.29;85.52;99031.22;7251499;40;20256;31
2023/08/14 06:02:17;;;;;;;5.00;3.05;;;;;;;22.37;84.78;99025.31;7262615;40;21173;31
2023/08/14 06:07:49;;;;;;;4.10;3.30;;;;;;;22.46;84.45;99024.69;7292724;39;20366;31
2023/08/14 06:13:10;;;;;;;4.87;3.60;;;;;;;22.53;84.64;99018.19;7230726;40;20293;31
2023/08/14 06:18:45;;;;;;;7.00;3.33;;;;;;;22.65;84.22;99024.44;7274084;40;21196;31
2023/08/14 06:24:21;;;;;;;4.78;3.00;;;;;;;22.72;84.02;99022.41;7283742;40;20264;31
2023/08/14 06:34:55;;;;;;;3.30;2.60;;;;;;;22.90;81.28;99011.16;7262061;40;21165;31
2023/08/14 06:45:31;;;;;;;4.32;3.08;;;;;;;23.18;80.14;99030.28;7253887;40;21148;31
2023/08/14 06:51:17;;;;;;;;;;;;;;;;;;;;;
2023/08/14 06:56:29;;;;;;;6.65;3.42;;;;;;;23.62;79.47;99038.63;7229576;40;20249;31
2023/08/14 07:02:03;;;;;;;5.65;3.50;;;;;;;23.80;78.64;99050.16;7253636;40;20257;31
2023/08/14 07:07:54;;;;;;;5.35;3.30;;;;;;;23.94;77.29;99025.84;7211011;40;20276;31
2023/08/14 07:13:12;;;;;;;5.35;3.20;;;;;;;24.17;76.85;99016.50;7175454;40;20270;31
2023/08/14 07:18:43;;;;;;;5.32;3.30;;;;;;;24.35;76.84;99027.16;7183242;40;20344;31
2023/08/14 07:24:17;;;;;;;6.17;3.03;;;;;;;24.19;77.98;99020.66;7180360;40;20292;31
2023/08/14 07:29:52;;;;;;;3.45;2.70;;;;;;;24.53;75.89;99025.94;7147957;40;20445;31
2023/08/14 07:35:27;;;;;;;6.12;3.07;;;;;;;24.55;75.47;99019.09;7165566;40;20393;31
2023/08/14 07:41:03;;;;;;;5.93;3.10;;;;;;;24.95;74.59;99032.41;7162392;40;20254;31
2023/08/14 07:46:24;;;;;;;4.43;2.77;;;;;;;24.97;75.55;99052.28;7193154;40;20261;31
2023/08/14 07:51:55;;;;;;;6.18;2.85;;;;;;;25.05;73.53;99054.56;7026816;40;20257;31
2023/08/14 07:57:31;;;;;;;4.68;3.05;;;;;;;25.09;74.36;99047.44;7206044;40;20391;31
2023/08/14 08:02:52;;;;;;;4.30;3.10;;;;;;;25.18;73.80;99046.94;7263365;39;20261;31
2023/08/14 08:08:26;;;;;;;6.65;3.60;;;;;;;25.08;73.84;99070.59;7252042;40;20466;31
2023/08/14 08:13:58;;;;;;;5.32;3.42;;;;;;;25.41;74.09;99072.19;7212707;40;20313;31
2023/08/14 08:19:32;;;;;;;3.95;3.00;;;;;;;25.67;73.79;99066.88;7204102;40;20341;31
2023/08/14 08:24:53;;;;;;;4.15;3.30;;;;;;;25.77;73.54;99072.44;7173026;40;20266;31
2023/08/14 08:30:29;;;;;;;7.57;2.90;;;;;;;25.99;71.34;99084.97;7183196;40;20277;31
2023/08/14 08:36:03;;;;;;;3.95;2.70;;;;;;;25.98;71.82;99080.56;7172581;40;20269;31
2023/08/14 08:41:39;;;;;;;3.30;2.97;;;;;;;26.35;70.71;99083.22;7184752;40;20415;31
2023/08/14 08:47:15;;;;;;;4.20;2.97;;;;;;;26.64;70.54;99068.91;7204579;40;20317;31
2023/08/14 08:52:47;;;;;;;5.73;2.60;;;;;;;26.77;70.62;99071.97;7259743;39;21688;31
2023/08/14 08:58:22;;;;;;;3.73;3.27;;;;;;;26.83;69.87;99076.41;7280851;39;20275;31
2023/08/14 09:03:58;;;;;;;3.90;2.90;;;;;;;27.03;68.33;99075.59;7214553;40;20340;31
2023/08/14 09:09:30;;;;;;;3.10;2.70;;;;;;;27.07;68.03;99071.19;7192138;40;20254;31
2023/08/14 09:15:12;;;;;;;4.12;2.90;;;;;;;27.09;68.08;99076.44;7196792;40;20368;31
2023/08/14 09:20:45;;;;;;;3.80;2.60;;;;;;;27.05;68.10;99078.09;7203686;40;20262;31
2023/08/14 09:26:17;;;;;;;3.45;2.70;;;;;;;26.98;67.67;99085.84;7167180;40;20300;31
2023/08/14 09:31:34;;;;;;;4.23;2.70;;;;;;;27.01;69.00;99077.81;7156458;40;20365;31
2023/08/14 09:37:10;;;;;;;3.03;2.70;;;;;;;27.12;68.97;99084.16;7146033;40;22228;31
2023/08/14 09:42:45;;;;;;;3.80;2.67;;;;;;;27.25;68.30;99078.09;7144908;40;21644;31
2023/08/14 09:48:20;;;;;;;4.57;2.90;;;;;;;27.44;68.14;99073.63;7250874;40;20279;31
2023/08/14 09:53:59;;;;;;;5.70;2.70;;;;;;;27.55;66.23;99080.03;7218545;40;20331;31
2023/08/14 09:59:19;;;;;;;3.05;2.50;;;;;;;27.76;67.00;99078.87;7180438;40;20339;31
2023/08/14 10:04:54;;;;;;;3.90;2.80;;;;;;;27.90;65.51;99090.19;7176030;40;21154;31
2023/08/14 10:10:30;;;;;;;4.32;2.47;;;;;;;28.09;65.94;99085.66;7146439;40;20241;31
2023/08/14 10:16:05;;;;;;;3.00;2.35;;;;;;;28.30;64.17;99087.28;7155441;40;20254;31
2023/08/14 10:21:35;;;;;;;4.60;2.75;;;;;;;28.36;64.77;99083.38;7166559;40;20277;31
2023/08/14 10:27:10;;;;;;;5.10;2.22;;;;;;;28.08;65.82;99081.25;7172925;40;21445;31
2023/08/14 10:32:45;;;;;;;4.20;2.62;;;;;;;27.96;66.59;99087.09;7212200;40;20254;31
2023/08/14 10:38:05;;;;;;;3.28;2.53;;;;;;;28.09;64.98;99080.97;7294770;39;20260;31
2023/08/14 10:43:55;;;;;;;4.26;2.32;;;;;;;28.06;66.17;99075.16;7263104;40;20356;31
2023/08/14 10:54:35;;;;;;;4.85;2.62;;;;;;;28.66;65.66;99076.78;7193242;40;20361;31
2023/08/14 11:00:09;;;;;;;5.65;2.55;;;;;;;28.75;64.77;99077.03;7155797;40;20265;31
2023/08/14 11:05:40;;;;;;;3.95;2.50;;;;;;;28.99;64.32;99086.31;7173734;40;20268;31
2023/08/14 11:11:12;;;;;;;4.82;2.40;;;;;;;29.37;60.94;99079.06;7178134;40;21187;31
2023/08/14 11:16:49;;;;;;;3.46;2.28;;;;;;;29.54;57.98;99069.19;7179904;40;20312;31
2023/08/14 11:22:17;;;;;;;3.75;2.25;;;;;;;29.46;55.25;99055.94;7234767;40;20261;31
2023/08/14 11:27:49;;;;;;;4.03;2.17;;;;;;;29.43;54.92;99048.19;7162572;40;20357;31
2023/08/14 11:33:22;;;;;;;4.05;2.42;;;;;;;29.72;54.72;99030.63;7202173;40;20281;31
2023/08/14 11:38:54;;;;;;;5.22;2.65;;;;;;;29.94;53.81;99025.41;7183331;40;20266;31
2023/08/14 11:44:14;;;;;;;4.93;2.50;;;;;;;29.87;51.58;99028.56;7225216;40;20331;31
2023/08/14 11:49:47;;;;;;;4.78;2.60;;;;;;;29.90;52.50;99016.84;7213030;40;20316;31
2023/08/14 11:55:19;;;;;;;4.50;2.70;;;;;;;30.13;52.97;99039.34;7248430;39;21581;31
2023/08/14 12:00:36;;;;;;;3.20;2.30;;;;;;;30.25;51.04;99037.78;7328867;39;20347;31
2023/08/14 12:06:13;;;;;;;3.55;2.20;;;;;;;29.96;52.30;99046.22;7335175;39;20345;31
2023/08/14 12:11:49;;;;;;;4.26;2.32;;;;;;;29.97;53.60;99041.50;7317691;39;20261;31
2023/08/14 12:17:19;;;;;;;4.40;2.58;;;;;;;29.76;52.65;99053.94;7265710;40;20269;31
2023/08/14 12:22:48;;;;;;;3.15;2.62;;;;;;;29.86;53.08;99067.72;7262583;40;20351;31
2023/08/14 12:28:20;;;;;;;5.05;2.53;;;;;;;29.98;52.23;99059.81;7235550;40;20252;31
2023/08/14 12:33:54;;;;;;;6.20;2.93;;;;;;;29.87;52.50;99070.25;7196473;40;20273;31
2023/08/14 12:39:25;;;;;;;4.23;2.87;;;;;;;29.95;51.59;99091.84;7125785;40;20248;31
2023/08/14 12:44:57;;;;;;;6.28;3.05;;;;;;;29.68;51.97;99077.66;7213021;40;20282;31
2023/08/14 12:50:14;;;;;;;4.68;3.00;;;;;;;29.77;52.70;99066.72;7186599;40;20274;31
2023/08/14 12:55:48;;;;;;;5.12;2.83;;;;;;;29.69;52.78;99051.53;7232201;40;20325;31
2023/08/14 13:01:06;;;;;;;3.75;3.00;;;;;;;29.48;53.38;99031.47;7254864;39;20264;31
2023/08/14 13:06:40;;;;;;;5.60;2.90;;;;;;;29.21;52.86;99033.94;7262684;40;20335;31
2023/08/14 13:12:13;;;;;;;5.70;2.90;;;;;;;28.94;53.95;99026.13;7224876;40;20425;31
2023/08/14 13:17:31;;;;;;;4.03;3.20;;;;;;;28.86;53.49;99020.38;7222599;40;20314;31
2023/08/14 13:23:02;;;;;;;5.05;3.22;;;;;;;28.56;54.66;99000.06;7257002;40;20776;31
2023/08/14 13:28:38;;;;;;;5.95;3.30;;;;;;;28.55;56.38;98990.06;7231756;40;20245;31
2023/08/14 13:34:14;;;;;;;5.60;2.97;;;;;;;28.57;57.27;98985.03;7163369;40;20340;31
2023/08/14 13:39:31;;;;;;;5.45;3.30;;;;;;;28.52;56.34;98982.28;7155246;40;20263;31
2023/08/14 13:45:03;;;;;;;4.05;2.80;;;;;;;28.74;56.39;98998.56;7162992;40;20254;31
2023/08/14 13:50:38;;;;;;;6.62;3.30;;;;;;;28.97;55.44;98999.72;7228244;40;20261;31
2023/08/14 13:56:10;;;;;;;5.97;3.40;;;;;;;29.10;55.55;98993.50;7205485;40;20257;31
2023/08/14 14:01:43;;;;;;;4.25;3.00;;;;;;;28.83;54.68;98998.75;6991703;40;20252;31
2023/08/14 14:07:01;;;;;;;3.72;3.22;;;;;;;28.70;55.44;99000.22;7192599;40;20270;31
2023/08/14 14:12:19;;;;;;;4.75;3.00;;;;;;;28.48;56.86;98992.31;7208064;40;20500;31
2023/08/14 14:17:51;;;;;;;3.70;2.85;;;;;;;28.42;58.02;98990.72;7240932;40;21259;31
2023/08/14 14:23:23;;;;;;;5.24;3.34;;;;;;;28.31;58.79;98994.66;7227577;40;20281;31
2023/08/14 14:28:41;;;;;;;4.63;3.30;;;;;;;28.19;57.64;98989.47;7179147;40;20346;31
2023/08/14 14:34:11;;;;;;;5.20;3.10;;;;;;;28.02;57.65;98979.84;7164696;40;20365;31
2023/08/14 14:39:43;;;;;;;5.45;2.95;;;;;;;27.97;58.48;98985.41;7195843;40;21046;31
2023/08/14 14:45:05;;;;;;;4.37;3.07;;;;;;;27.95;58.97;98982.09;7208051;40;20285;31
2023/08/14 14:50:35;;;;;;;6.84;3.12;;;;;;;27.95;58.71;98982.91;7217428;40;20359;31
2023/08/14 14:56:07;;;;;;;4.70;2.80;;;;;;;28.07;59.90;98975.09;7200642;40;20372;31
2023/08/14 15:01:40;;;;;;;6.86;3.26;;;;;;;28.35;60.35;98970.78;7130526;40;20373;31
2023/08/14 15:07:13;;;;;;;7.25;3.40;;;;;;;28.56;57.87;98963.16;7166377;40;20362;31
2023/08/14 15:12:33;;;;;;;4.60;3.30;;;;;;;28.76;57.62;98951.06;7191021;40;21090;31
2023/08/14 15:18:08;;;;;;;5.90;3.40;;;;;;;28.76;57.27;98953.84;7174153;40;20513;31
2023/08/14 15:28:44;;;;;;;6.75;3.35;;;;;;;28.81;57.66;98939.94;7207082;40;20277;31
2023/08/14 15:34:02;;;;;;;5.12;3.10;;;;;;;28.84;57.39;98939.34;7254660;40;20253;31
2023/08/14 15:39:37;;;;;;;4.40;2.80;;;;;;;29.18;57.33;98950.41;7276577;39;20252;31
2023/08/14 15:45:10;;;;;;;3.80;2.60;;;;;;;29.39;56.24;98932.41;7358005;39;20351;31
2023/08/14 15:50:42;;;;;;;5.25;3.10;;;;;;;29.45;55.83;98936.78;7276927;39;20470;31
2023/08/14 15:56:17;;;;;;;4.45;2.80;;;;;;;29.62;56.42;98939.09;7274418;39;20280;31
2023/08/14 16:01:50;;;;;;;6.28;3.00;;;;;;;29.71;55.18;98923.38;7245885;40;20280;31
2023/08/14 16:07:22;;;;;;;5.15;3.20;;;;;;;29.88;55.29;98920.97;7250084;40;20260;31
2023/08/14 16:12:39;;;;;;;6.36;3.04;;;;;;;30.05;55.10;98926.00;7216139;40;20268;31
2023/08/14 16:18:12;;;;;;;4.05;3.50;;;;;;;29.75;55.41;98921.69;7248263;40;20509;31
2023/08/14 16:23:44;;;;;;;5.85;3.20;;;;;;;29.66;56.44;98921.53;7242212;40;20281;31
2023/08/14 16:29:16;;;;;;;8.43;2.92;;;;;;;29.55;56.39;98929.16;7231704;40;20265;31
2023/08/14 16:34:50;;;;;;;6.28;3.22;;;;;;;29.38;57.38;98934.37;7237103;40;20343;31
2023/08/14 16:40:08;;;;;;;18.27;3.70;;;;;;;29.44;57.34;98929.59;7224775;40;20328;31
2023/08/14 16:45:26;;;;;;;4.08;3.20;;;;;;;29.36;57.34;98931.03;7170085;40;20270;31
2023/08/14 16:50:59;;;;;;;6.55;3.40;;;;;;;29.33;57.60;98919.69;7219721;40;20429;31
2023/08/14 16:56:19;;;;;;;9.25;3.45;;;;;;;29.29;57.37;98936.13;7185759;40;20279;31
2023/08/14 17:06:57;;;;;;;4.35;3.00;;;;;;;29.09;59.02;98925.22;7200746;40;22405;31
2023/08/14 17:17:21;;;;;;;12.20;3.20;;;;;;;28.93;59.28;98932.88;7306505;39;21909;31
2023/08/14 17:28:00;;;;;;;5.75;3.20;;;;;;;28.78;59.21;98927.47;7328230;39;20256;31
2023/08/14 17:33:17;;;;;;;7.08;3.26;;;;;;;28.74;60.24;98925.59;7312382;39;20298;31
2023/08/14 17:43:53;;;;;;;4.12;3.28;;;;;;;28.68;61.68;98928.38;7313824;39;21172;31
2023/08/14 17:54:14;;;;;;;3.48;3.18;;;;;;;28.55;61.77;98925.44;7302295;39;20275;31
2023/08/14 17:59:48;;;;;;;5.40;3.60;;;;;;;28.38;62.17;98925.84;7275368;40;20284;31
2023/08/14 18:10:27;;;;;;;9.02;3.72;;;;;;;28.35;64.97;98934.72;7253130;40;20763;31
2023/08/14 18:21:06;;;;;;;5.07;3.53;;;;;;;28.06;66.53;98939.34;7248009;40;21154;31
2023/08/14 18:26:26;;;;;;;7.40;3.40;;;;;;;27.90;67.14;98944.16;7220953;40;21856;31
2023/08/14 18:37:02;;;;;;;5.10;3.50;;;;;;;27.49;67.98;98948.22;7258509;40;20276;31
2023/08/14 18:47:24;;;;;;;7.62;4.20;;;;;;;27.21;69.03;98941.34;7304989;39;20267;31
2023/08/14 18:52:55;;;;;;;5.75;4.10;;;;;;;27.01;69.72;98953.31;7315737;39;20271;31
2023/08/14 18:58:27;;;;;;;6.62;4.16;;;;;;;26.86;69.54;98953.31;7257130;40;20349;31
2023/08/14 19:03:59;;;;;;;4.47;3.67;;;;;;;26.69;69.79;98955.50;7255562;40;20272;31
2023/08/14 19:09:33;;;;;;;5.12;3.80;;;;;;;26.61;70.70;98962.44;7213352;40;20309;31
2023/08/14 19:15:07;;;;;;;4.78;4.08;;;;;;;26.44;70.45;98967.41;7202382;40;20277;31
2023/08/14 19:25:45;;;;;;;5.03;4.12;;;;;;;26.15;71.69;98978.13;7199896;40;21261;31
2023/08/14 19:36:07;;;;;;;5.65;3.85;;;;;;;26.06;72.57;98981.69;7251681;39;20387;31
2023/08/14 19:41:50;;;;;;;5.00;4.00;;;;;;;25.73;73.94;98975.50;7299162;39;20940;31
2023/08/14 19:47:07;;;;;;;6.30;3.95;;;;;;;25.66;73.37;98974.94;7273466;40;21144;31
2023/08/14 19:52:41;;;;;;;6.47;4.18;;;;;;;25.64;72.58;98979.87;7255039;40;20272;31
2023/08/14 19:58:14;;;;;;;5.36;3.90;;;;;;;25.58;73.05;98989.25;7232061;40;20391;31
2023/08/14 20:03:32;;;;;;;5.10;4.10;;;;;;;25.54;72.67;98982.59;7191011;40;20306;31
2023/08/14 20:08:49;;;;;;;9.30;3.87;;;;;;;25.48;73.00;98980.88;7245251;39;20300;31
2023/08/14 20:14:21;;;;;;;5.75;3.90;;;;;;;25.38;72.76;98994.63;7229707;40;20265;31
2023/08/14 20:19:56;;;;;;;5.72;4.05;;;;;;;25.34;73.30;98986.06;7234823;40;20253;31
2023/08/14 20:25:17;;;;;;;5.30;3.87;;;;;;;25.30;73.06;98989.63;7232519;40;20257;31
2023/08/14 20:30:53;;;;;;;5.15;4.20;;;;;;;25.21;73.61;99005.00;7239161;40;20352;31
2023/08/14 20:36:30;;;;;;;6.97;4.17;;;;;;;25.16;73.17;98993.94;7205191;40;20255;31
2023/08/14 20:41:51;;;;;;;5.80;3.85;;;;;;;25.17;73.40;99001.13;7259605;40;20253;31
2023/08/14 20:47:26;;;;;;;5.60;3.90;;;;;;;25.13;74.50;98995.31;7254178;40;20428;31
2023/08/14 20:52:47;;;;;;;6.04;3.90;;;;;;;25.11;73.67;98994.72;7241763;40;20457;31
2023/08/14 20:58:21;;;;;;;6.55;4.20;;;;;;;25.02;74.31;98999.91;7259842;40;20276;31
2023/08/14 21:03:57;;;;;;;6.47;4.55;;;;;;;24.85;74.42;99004.72;7211141;40;20304;31
2023/08/14 21:09:15;;;;;;;6.22;4.03;;;;;;;24.87;74.69;99002.56;6967341;40;20249;31
2023/08/14 21:14:49;;;;;;;5.50;3.87;;;;;;;24.85;73.98;99014.91;7210456;40;20373;31
2023/08/14 21:20:24;;;;;;;6.25;5.65;;;;;;;24.78;74.76;99017.91;7206851;40;20246;31
2023/08/14 21:25:59;;;;;;;5.22;4.22;;;;;;;24.73;75.37;99022.53;7239255;40;20455;31
2023/08/14 21:31:19;;;;;;;4.90;3.90;;;;;;;24.67;75.50;99016.16;7196555;40;20285;31
2023/08/14 21:36:52;;;;;;;6.40;4.22;;;;;;;24.61;75.93;99003.44;7234266;40;20383;31
2023/08/14 21:42:09;;;;;;;5.50;3.85;;;;;;;24.64;76.24;99006.47;7232547;40;20479;31
2023/08/14 21:52:45;;;;;;;4.62;4.00;;;;;;;24.44;76.72;99008.22;7259687;40;21307;31
2023/08/14 21:58:17;;;;;;;6.93;4.18;;;;;;;24.33;77.75;99006.44;7246761;40;20263;31
2023/08/14 22:03:37;;;;;;;6.30;4.20;;;;;;;24.23;77.95;99008.00;7283411;40;20310;31
2023/08/14 22:09:10;;;;;;;7.43;4.20;;;;;;;24.23;77.97;99008.00;7293357;39;20279;31
2023/08/14 22:19:31;;;;;;;5.03;3.92;;;;;;;24.15;77.41;99000.22;7281518;39;21383;31
2023/08/14 22:25:07;;;;;;;6.25;4.40;;;;;;;24.08;78.03;99005.06;7334059;39;20251;31
2023/08/14 22:30:27;;;;;;;5.70;4.53;;;;;;;24.10;77.76;99015.81;7305925;39;20317;31
2023/08/14 22:36:04;;;;;;;7.95;4.45;;;;;;;24.00;79.62;98997.25;7293958;40;20281;31
2023/08/14 22:41:40;;;;;;;4.65;4.25;;;;;;;24.04;79.88;99003.94;7229743;40;20246;31
2023/08/14 22:47:12;;;;;;;6.72;4.28;;;;;;;23.95;81.62;99011.00;7240889;40;20281;31
2023/08/14 22:52:32;;;;;;;6.62;4.30;;;;;;;23.86;80.01;99012.53;7259891;40;20245;31
2023/08/14 22:58:08;;;;;;;6.70;4.58;;;;;;;23.78;81.17;99010.22;7278925;39;21196;31
2023/08/14 23:03:44;;;;;;;7.45;4.70;;;;;;;23.79;79.40;99020.13;7272430;39;20292;31
2023/08/14 23:14:21;;;;;;;8.20;5.10;;;;;;;23.78;79.90;99022.06;7261221;40;21237;31
2023/08/14 23:24:42;;;;;;;8.20;4.50;;;;;;;23.70;79.99;99019.75;7273764;40;21366;31
2023/08/14 23:30:16;;;;;;;5.60;4.30;;;;;;;23.49;80.37;99019.75;7276087;40;20230;31
2023/08/14 23:35:36;;;;;;;6.15;4.85;;;;;;;23.45;80.56;99002.91;7246910;40;20434;31
2023/08/14 23:41:08;;;;;;;6.47;4.95;;;;;;;23.53;79.69;98991.47;7315131;39;20325;31
2023/08/14 23:46:44;;;;;;;6.23;4.60;;;;;;;23.47;81.16;98994.41;7298930;39;20260;31
2023/08/14 23:52:17;;;;;;;6.30;4.70;;;;;;;23.30;80.84;98981.50;7206695;40;20281;31
2023/08/14 23:57:37;;;;;;;7.30;4.87;;;;;;;23.22;81.12;98990.19;7147064;40;21139;31
